Time;durP1;ratioP1;P1;durP2;ratioP2;P2;SDS_P1;SDS_P2;PMS_P1;PMS_P2;Temp;Humidity;BMP_temperature;BMP_pressure;BME280_temperature;BME280_humidity;BME280_pressure;Samples;Min_cycle;Max_cycle;Signal;HPM_P1;HPM_P2
2022/09/14 00:00:51;;;;;;;4.07;3.17;;;10.90;99.90;;;;;;4902500;29;20032;-75
2022/09/14 00:03:17;;;;;;;4.28;3.30;;;10.80;99.90;;;;;;4917744;29;20517;-75
2022/09/14 00:05:44;;;;;;;3.38;3.08;;;10.80;99.90;;;;;;4916987;29;20080;-75
2022/09/14 00:08:10;;;;;;;5.93;3.50;;;10.80;99.90;;;;;;4897395;29;20083;-75
2022/09/14 00:10:43;;;;;;;3.70;3.10;;;10.80;99.90;;;;;;4910533;29;20047;-75
2022/09/14 00:13:10;;;;;;;3.72;3.42;;;10.80;99.90;;;;;;4934864;29;20051;-75
2022/09/14 00:15:38;;;;;;;3.55;2.80;;;10.80;99.90;;;;;;4934922;29;20048;-75
2022/09/14 00:18:06;;;;;;;5.22;3.58;;;10.90;99.90;;;;;;4909012;29;20043;-75
2022/09/14 00:20:32;;;;;;;3.90;3.25;;;10.90;99.90;;;;;;4905690;29;20042;-75
2022/09/14 00:22:58;;;;;;;3.45;3.15;;;10.80;99.90;;;;;;4924869;29;20043;-75
2022/09/14 00:25:25;;;;;;;4.75;3.58;;;10.80;99.90;;;;;;4899879;29;20040;-75
2022/09/14 00:27:51;;;;;;;4.50;3.17;;;10.80;99.90;;;;;;4914805;29;20042;-75
2022/09/14 00:30:17;;;;;;;5.53;3.95;;;10.80;99.90;;;;;;4898934;29;20042;-75
2022/09/14 00:32:43;;;;;;;4.53;3.60;;;10.80;99.90;;;;;;4917595;29;20035;-75
2022/09/14 00:35:09;;;;;;;5.18;3.63;;;10.80;99.90;;;;;;4934467;29;20047;-75
2022/09/14 00:37:35;;;;;;;3.97;3.58;;;10.80;99.90;;;;;;4912228;29;20111;-76
2022/09/14 00:40:03;;;;;;;4.43;3.75;;;10.80;99.90;;;;;;4896441;29;20132;-76
2022/09/14 00:42:28;;;;;;;4.35;3.78;;;10.80;99.90;;;;;;4912071;29;20047;-76
2022/09/14 00:44:59;;;;;;;4.57;3.90;;;10.80;99.90;;;;;;4884080;29;20448;-75
2022/09/14 00:47:26;;;;;;;5.90;3.80;;;10.80;99.90;;;;;;4896204;29;20087;-75
2022/09/14 00:49:52;;;;;;;3.47;3.17;;;10.80;99.90;;;;;;4898994;29;20059;-75
2022/09/14 00:52:25;;;;;;;3.70;3.38;;;10.80;99.90;;;;;;4912573;29;20528;-76
2022/09/14 00:54:57;;;;;;;3.90;3.20;;;10.80;99.90;;;;;;4934151;29;20040;-75
2022/09/14 00:57:24;;;;;;;3.40;3.10;;;10.80;99.90;;;;;;4929653;29;20044;-75
2022/09/14 00:59:51;;;;;;;3.65;2.85;;;10.80;99.90;;;;;;4908414;29;20534;-75
2022/09/14 01:02:20;;;;;;;4.50;2.97;;;10.80;99.90;;;;;;4909318;29;20039;-75
2022/09/14 01:04:46;;;;;;;5.28;2.90;;;10.70;99.90;;;;;;4934156;29;20472;-75
2022/09/14 01:07:31;;;;;;;3.30;3.00;;;10.70;99.90;;;;;;4915326;29;20103;-75
2022/09/14 01:10:11;;;;;;;3.15;2.67;;;10.70;99.90;;;;;;4898855;29;20566;-76
2022/09/14 01:12:45;;;;;;;4.30;3.13;;;10.70;99.90;;;;;;4907248;29;20397;-75
2022/09/14 01:15:23;;;;;;;4.75;3.53;;;10.70;99.90;;;;;;4933788;29;20094;-75
2022/09/14 01:18:07;;;;;;;3.78;2.80;;;10.60;99.90;;;;;;4910547;29;20052;-75
2022/09/14 01:20:47;;;;;;;;;;;10.70;99.90;;;;;;4914948;29;20040;-75
2022/09/14 01:23:33;;;;;;;4.47;3.15;;;10.70;99.90;;;;;;4911512;29;20389;-76
2022/09/14 01:26:26;;;;;;;3.38;2.95;;;10.60;99.90;;;;;;4867277;29;20052;-76
2022/09/14 01:29:01;;;;;;;3.47;3.00;;;10.60;99.90;;;;;;4904315;29;20031;-75
2022/09/14 01:31:29;;;;;;;3.35;2.95;;;10.60;99.90;;;;;;4898839;29;20132;-75
2022/09/14 01:34:00;;;;;;;3.20;2.80;;;10.50;99.90;;;;;;4901936;29;20087;-75
2022/09/14 01:36:29;;;;;;;3.72;2.95;;;10.50;99.90;;;;;;4933446;29;20047;-75
2022/09/14 01:38:55;;;;;;;3.50;3.17;;;10.50;99.90;;;;;;4898533;29;20060;-75
2022/09/14 01:41:25;;;;;;;3.38;3.08;;;10.40;99.90;;;;;;4885876;29;20052;-75
2022/09/14 01:43:56;;;;;;;4.38;3.10;;;10.40;99.90;;;;;;4901796;29;20475;-75
2022/09/14 01:46:31;;;;;;;3.15;2.85;;;10.40;99.90;;;;;;4910488;29;20043;-75
2022/09/14 01:49:24;;;;;;;4.03;3.13;;;10.30;99.90;;;;;;4898559;29;20107;-75
2022/09/14 01:51:58;;;;;;;3.92;3.35;;;10.30;99.90;;;;;;4913458;29;20048;-76
2022/09/14 01:54:38;;;;;;;5.13;3.10;;;10.20;99.90;;;;;;4909343;29;20048;-75
2022/09/14 01:57:17;;;;;;;3.92;3.53;;;10.20;99.90;;;;;;4895370;29;20036;-75
2022/09/14 01:59:45;;;;;;;3.90;3.40;;;10.20;99.90;;;;;;4898305;29;20070;-75
2022/09/14 02:02:21;;;;;;;5.25;4.07;;;10.20;99.90;;;;;;4898377;29;20168;-75
2022/09/14 02:05:02;;;;;;;4.00;3.47;;;10.20;99.90;;;;;;4899904;29;20043;-75
2022/09/14 02:07:28;;;;;;;4.03;3.50;;;10.10;99.90;;;;;;4928662;29;20048;-75
2022/09/14 02:09:54;;;;;;;4.10;3.65;;;10.10;99.90;;;;;;4924849;29;20711;-75
2022/09/14 02:12:21;;;;;;;6.60;3.13;;;10.10;99.90;;;;;;4917101;29;20051;-75
2022/09/14 02:14:49;;;;;;;3.38;2.88;;;10.10;99.90;;;;;;4933304;29;20043;-75
2022/09/14 02:17:14;;;;;;;4.45;2.80;;;10.10;99.90;;;;;;4931534;29;20415;-75
2022/09/14 02:19:54;;;;;;;3.47;3.17;;;10.20;99.90;;;;;;4899339;29;20040;-75
2022/09/14 02:22:20;;;;;;;3.25;2.90;;;10.10;99.90;;;;;;4899703;29;20048;-75
2022/09/14 02:24:47;;;;;;;3.95;3.38;;;10.20;99.90;;;;;;4907221;29;20438;-75
2022/09/14 02:27:12;;;;;;;4.35;3.40;;;10.20;99.90;;;;;;4901780;29;20123;-75
2022/09/14 02:29:38;;;;;;;4.28;3.30;;;10.20;99.90;;;;;;4902298;29;20058;-75
2022/09/14 02:32:10;;;;;;;4.60;3.60;;;10.20;99.90;;;;;;4901494;29;20036;-75
2022/09/14 02:34:53;;;;;;;6.28;3.90;;;10.20;99.90;;;;;;4901620;29;20040;-75
2022/09/14 02:37:43;;;;;;;5.72;3.65;;;10.20;99.90;;;;;;4900146;29;20125;-75
2022/09/14 02:40:32;;;;;;;4.22;2.95;;;10.30;99.90;;;;;;4907647;29;20111;-75
2022/09/14 02:43:26;;;;;;;4.68;3.40;;;10.30;99.90;;;;;;4929164;29;20047;-75
2022/09/14 02:46:29;;;;;;;3.65;3.30;;;10.30;99.90;;;;;;4901729;29;20043;-75
2022/09/14 02:49:16;;;;;;;4.75;3.60;;;10.40;99.90;;;;;;4901743;29;20083;-75
2022/09/14 02:52:27;;;;;;;5.60;3.15;;;10.40;99.90;;;;;;4909520;29;20044;-75
2022/09/14 02:55:02;;;;;;;3.25;2.85;;;10.40;99.90;;;;;;4862482;29;20112;-75
2022/09/14 02:57:27;;;;;;;3.92;3.22;;;10.40;99.90;;;;;;4894719;29;20052;-75
2022/09/14 02:59:54;;;;;;;3.22;2.88;;;10.50;99.90;;;;;;4928447;29;20042;-75
2022/09/14 03:02:19;;;;;;;3.90;3.25;;;10.50;99.90;;;;;;4926473;29;20047;-75
2022/09/14 03:04:45;;;;;;;4.22;2.88;;;10.50;99.90;;;;;;4916873;29;20054;-75
2022/09/14 03:07:11;;;;;;;3.53;2.97;;;10.50;99.90;;;;;;4921598;29;20036;-75
2022/09/14 03:09:36;;;;;;;4.03;3.13;;;10.50;99.90;;;;;;4920023;29;20040;-75
2022/09/14 03:12:02;;;;;;;5.35;3.28;;;10.50;99.90;;;;;;4930846;29;20123;-75
2022/09/14 03:14:28;;;;;;;2.97;2.67;;;10.50;99.90;;;;;;4914251;29;20405;-75
2022/09/14 03:16:53;;;;;;;4.63;3.28;;;10.50;99.90;;;;;;4900985;29;20043;-75
2022/09/14 03:19:19;;;;;;;3.75;3.10;;;10.50;99.90;;;;;;4901527;29;20499;-75
2022/09/14 03:21:45;;;;;;;4.20;3.35;;;10.50;99.90;;;;;;4902132;29;20051;-75
2022/09/14 03:24:10;;;;;;;4.43;3.10;;;10.60;99.90;;;;;;4917500;29;20549;-75
2022/09/14 03:26:37;;;;;;;4.47;3.30;;;10.50;99.90;;;;;;4919237;29;20137;-75
2022/09/14 03:29:04;;;;;;;4.68;3.30;;;10.60;99.90;;;;;;4900885;29;20036;-75
2022/09/14 03:31:30;;;;;;;4.43;3.30;;;10.60;99.90;;;;;;4900527;29;20455;-75
2022/09/14 03:33:58;;;;;;;4.65;3.40;;;10.60;99.90;;;;;;4910703;29;20062;-75
2022/09/14 03:36:26;;;;;;;4.10;3.47;;;10.60;99.90;;;;;;4935856;29;20052;-75
2022/09/14 03:38:53;;;;;;;5.38;3.75;;;10.60;99.90;;;;;;4935322;29;20068;-75
2022/09/14 03:41:19;;;;;;;6.38;3.63;;;10.60;99.90;;;;;;4935455;29;20039;-75
2022/09/14 03:43:45;;;;;;;4.68;3.70;;;10.60;99.90;;;;;;4929341;29;20054;-75
2022/09/14 03:46:22;;;;;;;4.13;3.28;;;10.60;99.90;;;;;;4919566;29;20035;-75
2022/09/14 03:48:48;;;;;;;5.20;3.60;;;10.60;99.90;;;;;;4935166;29;20044;-75
2022/09/14 03:51:13;;;;;;;4.22;3.55;;;10.60;99.90;;;;;;4935189;29;20048;-75
2022/09/14 03:53:40;;;;;;;5.03;3.63;;;10.70;99.90;;;;;;4931935;29;20066;-75
2022/09/14 03:56:08;;;;;;;3.65;2.95;;;10.70;99.90;;;;;;4925525;29;20122;-75
2022/09/14 03:58:33;;;;;;;4.43;3.20;;;10.70;99.90;;;;;;4919386;29;20510;-75
2022/09/14 04:01:08;;;;;;;4.10;3.35;;;10.70;99.90;;;;;;4919222;29;20138;-75
2022/09/14 04:03:34;;;;;;;3.65;3.25;;;10.70;99.90;;;;;;4906061;29;20039;-75
2022/09/14 04:06:04;;;;;;;4.20;3.60;;;10.70;99.90;;;;;;4927405;29;20379;-75
2022/09/14 04:08:31;;;;;;;5.57;3.40;;;10.70;99.90;;;;;;4934825;29;20166;-75
2022/09/14 04:10:56;;;;;;;4.05;3.42;;;10.70;99.90;;;;;;4934914;29;20094;-75
2022/09/14 04:13:23;;;;;;;4.68;3.58;;;10.80;99.90;;;;;;4924688;29;20135;-75
2022/09/14 04:15:59;;;;;;;4.68;4.03;;;10.70;99.90;;;;;;4910277;29;20039;-76
2022/09/14 04:18:26;;;;;;;5.00;4.05;;;10.80;99.90;;;;;;4918802;29;20168;-75
2022/09/14 04:21:06;;;;;;;5.15;4.07;;;10.80;99.90;;;;;;4934614;29;20044;-75
2022/09/14 04:23:32;;;;;;;6.95;5.05;;;10.80;99.90;;;;;;4919955;29;20032;-76
2022/09/14 04:25:58;;;;;;;6.88;5.45;;;10.80;99.90;;;;;;4903579;29;20037;-76
2022/09/14 04:28:25;;;;;;;5.57;4.85;;;10.90;99.90;;;;;;4895762;29;20533;-75
2022/09/14 04:30:59;;;;;;;6.90;5.28;;;10.90;99.90;;;;;;4899827;29;20075;-75
2022/09/14 04:33:28;;;;;;;5.82;4.43;;;10.90;99.90;;;;;;4908291;29;20420;-75
2022/09/14 04:36:07;;;;;;;6.60;4.82;;;10.90;99.90;;;;;;4917940;29;20067;-75
2022/09/14 04:38:34;;;;;;;5.60;4.90;;;10.90;99.90;;;;;;4934393;29;20044;-75
2022/09/14 04:41:04;;;;;;;6.38;4.75;;;10.90;99.90;;;;;;4934355;29;20048;-75
2022/09/14 04:43:30;;;;;;;5.30;4.57;;;11.00;99.90;;;;;;4909490;29;20411;-75
2022/09/14 04:46:01;;;;;;;6.35;4.55;;;11.00;99.90;;;;;;4883909;29;20037;-75
2022/09/14 04:48:27;;;;;;;6.72;4.70;;;11.00;99.90;;;;;;4899662;29;20404;-75
2022/09/14 04:50:53;;;;;;;5.55;4.60;;;11.00;99.90;;;;;;4924422;29;20043;-75
2022/09/14 04:53:19;;;;;;;5.07;4.25;;;10.90;99.90;;;;;;4912235;29;20408;-75
2022/09/14 04:55:44;;;;;;;4.90;4.28;;;11.00;99.90;;;;;;4899105;29;20086;-75
2022/09/14 04:58:10;;;;;;;5.80;5.00;;;11.00;99.90;;;;;;4899106;29;20040;-75
2022/09/14 05:00:35;;;;;;;5.45;4.22;;;11.00;99.90;;;;;;4892688;29;20558;-76
2022/09/14 05:03:03;;;;;;;5.78;4.40;;;10.90;99.90;;;;;;4904908;29;20040;-75
2022/09/14 05:05:28;;;;;;;6.43;4.68;;;11.00;99.90;;;;;;4883615;29;20044;-75
2022/09/14 05:07:54;;;;;;;5.00;4.28;;;11.00;99.90;;;;;;4895974;29;20043;-75
2022/09/14 05:10:19;;;;;;;6.07;4.97;;;11.00;99.90;;;;;;4896396;29;20037;-75
2022/09/14 05:12:45;;;;;;;5.80;4.85;;;11.00;99.90;;;;;;4909001;29;20524;-75
2022/09/14 05:15:11;;;;;;;5.38;4.13;;;11.00;99.90;;;;;;4903356;29;20483;-75
2022/09/14 05:17:36;;;;;;;5.78;4.38;;;11.00;99.90;;;;;;4917698;29;20036;-75
2022/09/14 05:20:02;;;;;;;4.72;4.18;;;11.00;99.90;;;;;;4899555;29;20036;-75
2022/09/14 05:22:28;;;;;;;4.72;3.88;;;11.10;99.90;;;;;;4914467;29;20044;-75
2022/09/14 05:24:53;;;;;;;5.63;4.43;;;11.10;99.90;;;;;;4899271;29;20440;-75
2022/09/14 05:27:19;;;;;;;5.35;4.35;;;11.10;99.90;;;;;;4914463;29;20515;-75
2022/09/14 05:29:44;;;;;;;5.78;4.03;;;11.10;99.90;;;;;;4922890;29;20055;-75
2022/09/14 05:32:10;;;;;;;4.93;4.40;;;11.20;99.90;;;;;;4920155;29;20044;-75
2022/09/14 05:34:35;;;;;;;6.50;4.60;;;11.20;99.90;;;;;;4898827;29;20091;-75
2022/09/14 05:37:01;;;;;;;6.22;4.85;;;11.30;99.90;;;;;;4874517;29;20127;-75
2022/09/14 05:39:27;;;;;;;6.07;4.63;;;11.20;99.90;;;;;;4913060;29;20391;-75
2022/09/14 05:41:52;;;;;;;4.95;4.22;;;11.30;99.90;;;;;;4917080;29;20119;-75
2022/09/14 05:44:18;;;;;;;4.95;4.28;;;11.30;99.90;;;;;;4933367;29;20071;-75
2022/09/14 05:46:43;;;;;;;5.85;4.50;;;11.30;99.90;;;;;;4878517;29;20040;-75
2022/09/14 05:49:09;;;;;;;5.57;4.40;;;11.40;99.90;;;;;;4914172;29;20539;-75
2022/09/14 05:51:35;;;;;;;4.95;4.28;;;11.40;99.90;;;;;;4905697;29;20387;-75
2022/09/14 05:54:01;;;;;;;5.68;4.20;;;11.40;99.90;;;;;;4917433;29;20392;-75
2022/09/14 05:56:28;;;;;;;5.20;4.30;;;11.50;99.90;;;;;;4919626;29;20044;-75
2022/09/14 05:58:54;;;;;;;4.85;4.10;;;11.50;99.90;;;;;;4891633;29;20036;-75
2022/09/14 06:01:21;;;;;;;5.20;3.78;;;11.50;99.90;;;;;;4918109;29;20114;-75
2022/09/14 06:03:48;;;;;;;5.85;4.47;;;11.60;99.90;;;;;;4899235;29;20520;-75
2022/09/14 06:06:16;;;;;;;5.25;4.63;;;11.60;99.90;;;;;;4897997;29;20055;-75
2022/09/14 06:08:42;;;;;;;6.10;4.72;;;11.70;99.90;;;;;;4913261;29;20126;-75
2022/09/14 06:11:12;;;;;;;5.53;4.55;;;11.70;99.90;;;;;;4898275;29;20080;-75
2022/09/14 06:13:38;;;;;;;6.43;4.53;;;11.70;99.90;;;;;;4896201;29;20131;-75
2022/09/14 06:16:06;;;;;;;6.75;4.85;;;11.80;99.90;;;;;;4933078;29;20096;-75
2022/09/14 06:18:33;;;;;;;5.68;5.03;;;11.80;99.90;;;;;;4922816;29;20052;-75
2022/09/14 06:20:59;;;;;;;6.75;5.10;;;11.90;99.90;;;;;;4917021;29;20071;-75
2022/09/14 06:23:26;;;;;;;5.28;4.63;;;12.00;99.90;;;;;;4927787;29;20503;-75
2022/09/14 06:25:53;;;;;;;6.47;5.32;;;12.00;99.90;;;;;;4899938;29;20560;-76
2022/09/14 06:28:19;;;;;;;6.28;4.53;;;12.00;99.90;;;;;;4912345;29;20076;-76
2022/09/14 06:30:45;;;;;;;6.85;5.43;;;12.10;99.90;;;;;;4932983;29;20359;-77
2022/09/14 06:33:10;;;;;;;8.15;5.53;;;12.20;99.90;;;;;;4917055;29;20040;-77
2022/09/14 06:35:36;;;;;;;6.95;5.97;;;12.20;99.90;;;;;;4923514;29;20094;-77
2022/09/14 06:38:01;;;;;;;6.63;5.30;;;12.30;99.90;;;;;;4900375;29;20045;-77
2022/09/14 06:40:28;;;;;;;6.78;5.53;;;12.40;99.90;;;;;;4932900;29;20482;-77
2022/09/14 06:42:53;;;;;;;6.55;5.82;;;12.40;99.90;;;;;;4897276;29;20056;-76
2022/09/14 06:45:19;;;;;;;6.78;5.35;;;12.50;99.90;;;;;;4912566;29;20127;-77
2022/09/14 06:47:44;;;;;;;6.28;5.18;;;12.60;99.90;;;;;;4896302;29;20052;-77
2022/09/14 06:50:10;;;;;;;7.07;5.68;;;12.70;99.90;;;;;;4918226;29;20082;-76
2022/09/14 06:52:36;;;;;;;6.93;5.80;;;12.70;99.90;;;;;;4907890;29;20048;-76
2022/09/14 06:55:02;;;;;;;6.95;5.05;;;12.80;99.90;;;;;;4926244;29;20292;-76
2022/09/14 06:57:27;;;;;;;7.45;5.43;;;12.80;99.90;;;;;;4925107;29;20502;-76
2022/09/14 06:59:53;;;;;;;6.90;5.35;;;12.90;99.90;;;;;;4923663;29;20039;-80
2022/09/14 07:02:19;;;;;;;5.97;4.78;;;13.00;99.90;;;;;;4903543;29;20097;-76
2022/09/14 07:04:44;;;;;;;5.78;4.68;;;13.10;99.90;;;;;;4932757;29;20044;-77
2022/09/14 07:07:13;;;;;;;5.55;4.75;;;13.20;99.90;;;;;;4898971;29;20376;-77
2022/09/14 07:09:38;;;;;;;5.68;4.70;;;13.30;99.90;;;;;;4924907;29;20051;-77
2022/09/14 07:12:04;;;;;;;6.10;4.65;;;13.40;99.90;;;;;;4885727;29;20040;-77
2022/09/14 07:14:30;;;;;;;6.00;4.70;;;13.40;99.90;;;;;;4913810;29;20103;-77
2022/09/14 07:16:55;;;;;;;4.80;4.30;;;13.50;99.90;;;;;;4916580;29;20039;-78
2022/09/14 07:19:21;;;;;;;6.72;4.93;;;13.60;99.90;;;;;;4916288;29;20051;-77
2022/09/14 07:21:48;;;;;;;6.95;4.57;;;13.60;99.90;;;;;;4900106;29;20044;-77
2022/09/14 07:24:14;;;;;;;4.45;3.72;;;13.70;99.90;;;;;;4901453;29;20044;-77
2022/09/14 07:26:41;;;;;;;4.47;3.80;;;13.80;99.90;;;;;;4917045;29;20051;-77
2022/09/14 07:29:10;;;;;;;6.78;4.07;;;13.90;99.90;;;;;;4900848;29;20036;-77
2022/09/14 07:31:56;;;;;;;5.38;4.38;;;14.10;99.90;;;;;;4900822;29;20127;-77
2022/09/14 07:34:23;;;;;;;7.30;4.07;;;14.20;99.90;;;;;;4900626;29;20059;-78
2022/09/14 07:36:49;;;;;;;6.93;4.00;;;14.30;99.90;;;;;;4885683;29;20403;-77
2022/09/14 07:39:16;;;;;;;5.18;3.92;;;14.50;99.90;;;;;;4900084;29;20048;-77
2022/09/14 07:41:42;;;;;;;5.45;3.65;;;14.60;99.90;;;;;;4896896;29;20068;-75
2022/09/14 07:44:11;;;;;;;5.05;3.78;;;14.80;99.90;;;;;;4916174;29;20098;-77
2022/09/14 07:46:43;;;;;;;4.93;3.78;;;14.90;99.90;;;;;;4935432;29;20103;-77
2022/09/14 07:49:09;;;;;;;5.70;3.90;;;15.10;99.90;;;;;;4914596;29;20384;-78
2022/09/14 07:51:36;;;;;;;5.95;3.60;;;15.20;99.90;;;;;;4898803;29;20091;-77
2022/09/14 07:54:07;;;;;;;5.15;4.00;;;15.30;99.90;;;;;;4918432;29;20039;-78
2022/09/14 07:56:33;;;;;;;4.28;3.55;;;15.40;99.90;;;;;;4897583;29;20047;-78
2022/09/14 07:59:00;;;;;;;5.22;3.50;;;15.50;99.90;;;;;;4935102;29;20048;-77
2022/09/14 08:01:28;;;;;;;8.77;6.47;;;15.60;99.90;;;;;;4914328;29;20508;-77
2022/09/14 08:03:54;;;;;;;9.35;6.97;;;15.80;99.90;;;;;;4897616;29;20085;-78
2022/09/14 08:06:23;;;;;;;11.20;8.50;;;15.90;99.90;;;;;;4900036;29;20400;-77
2022/09/14 08:08:50;;;;;;;10.20;8.05;;;16.00;99.90;;;;;;4918182;29;20043;-77
2022/09/14 08:11:26;;;;;;;8.32;7.20;;;16.20;99.90;;;;;;4931290;29;20051;-79
2022/09/14 08:13:59;;;;;;;7.50;5.97;;;16.20;99.90;;;;;;4900609;29;20542;-76
2022/09/14 08:16:26;;;;;;;3.73;2.90;;;16.40;99.90;;;;;;4880699;29;20040;-77
2022/09/14 08:18:58;;;;;;;4.15;2.60;;;16.50;99.90;;;;;;4910103;29;20036;-80
2022/09/14 08:21:24;;;;;;;4.32;1.90;;;16.60;99.90;;;;;;4919901;29;20044;-78
2022/09/14 08:23:50;;;;;;;2.47;2.03;;;16.70;99.90;;;;;;4915098;29;20102;-76
2022/09/14 08:26:20;;;;;;;2.80;1.60;;;16.80;99.90;;;;;;4917466;29;20042;-76
2022/09/14 08:28:47;;;;;;;1.45;1.10;;;16.80;99.90;;;;;;4917635;29;20383;-76
2022/09/14 08:31:15;;;;;;;2.30;1.20;;;16.90;99.90;;;;;;4909268;29;20047;-76
2022/09/14 08:33:43;;;;;;;2.88;1.10;;;16.90;99.90;;;;;;4898020;29;20094;-76
2022/09/14 08:36:11;;;;;;;1.90;0.90;;;17.00;99.90;;;;;;4902376;29;20036;-76
2022/09/14 08:38:37;;;;;;;1.30;1.02;;;17.10;99.90;;;;;;4910252;29;20157;-76
2022/09/14 08:41:24;;;;;;;1.23;1.10;;;17.10;99.90;;;;;;4894119;29;20055;-76
2022/09/14 08:43:50;;;;;;;2.70;1.00;;;17.30;99.90;;;;;;4914215;29;20119;-78
2022/09/14 08:46:26;;;;;;;2.05;1.00;;;17.30;99.90;;;;;;4899866;29;20406;-75
2022/09/14 08:48:53;;;;;;;1.85;0.90;;;17.40;99.90;;;;;;4910121;29;20053;-75
2022/09/14 08:51:19;;;;;;;1.27;0.90;;;17.60;99.90;;;;;;4934648;29;20123;-76
2022/09/14 08:53:45;;;;;;;1.25;0.80;;;17.60;99.90;;;;;;4922145;29;20195;-76
2022/09/14 08:56:42;;;;;;;2.08;0.93;;;17.60;99.90;;;;;;4925587;29;20040;-76
2022/09/14 08:59:32;;;;;;;3.28;1.05;;;17.80;99.90;;;;;;4928925;29;20364;-76
2022/09/14 09:02:18;;;;;;;2.58;0.70;;;17.80;99.90;;;;;;4896010;29;20575;-76
2022/09/14 09:04:56;;;;;;;0.77;0.50;;;17.80;99.90;;;;;;4900536;29;20099;-76
2022/09/14 09:08:02;;;;;;;1.95;0.60;;;17.90;99.90;;;;;;4915862;29;20040;-76
2022/09/14 09:10:29;;;;;;;0.68;0.50;;;18.10;99.90;;;;;;4911386;29;20058;-76
2022/09/14 09:12:59;;;;;;;1.25;0.50;;;18.30;99.90;;;;;;4914129;29;20524;-76
2022/09/14 09:15:33;;;;;;;1.52;0.60;;;18.40;99.90;;;;;;4893809;29;20116;-76
2022/09/14 09:18:14;;;;;;;0.93;0.47;;;18.60;99.90;;;;;;4900551;29;20043;-76
2022/09/14 09:20:47;;;;;;;1.38;0.50;;;18.80;99.90;;;;;;4894474;29;20621;-76
2022/09/14 09:23:17;;;;;;;0.82;0.43;;;18.90;99.90;;;;;;4897185;29;20048;-75
2022/09/14 09:26:04;;;;;;;1.73;0.75;;;19.00;99.90;;;;;;4906742;29;20032;-76
2022/09/14 09:28:30;;;;;;;2.08;0.88;;;18.90;99.90;;;;;;4901585;29;20043;-76
2022/09/14 09:31:03;;;;;;;0.50;0.30;;;18.80;99.90;;;;;;4933574;29;20514;-76
2022/09/14 09:33:29;;;;;;;1.52;0.32;;;18.90;99.90;;;;;;4921095;29;20391;-76
2022/09/14 09:35:55;;;;;;;0.57;0.30;;;19.00;99.90;;;;;;4902410;29;20044;-76
2022/09/14 09:38:27;;;;;;;1.13;0.30;;;19.00;99.90;;;;;;4894580;29;20526;-75
2022/09/14 09:41:12;;;;;;;2.08;0.50;;;19.00;99.90;;;;;;4905719;29;20468;-76
2022/09/14 09:44:08;;;;;;;1.38;0.30;;;18.90;99.90;;;;;;4891115;29;20051;-77
2022/09/14 09:46:44;;;;;;;0.47;0.25;;;18.90;99.90;;;;;;4914023;29;20191;-77
2022/09/14 09:49:31;;;;;;;1.48;0.50;;;18.90;99.90;;;;;;4914659;29;20047;-76
2022/09/14 09:52:15;;;;;;;0.57;0.30;;;18.90;99.90;;;;;;4895539;29;20044;-77
2022/09/14 09:54:48;;;;;;;1.08;0.20;;;19.00;99.90;;;;;;4895513;29;20040;-77
2022/09/14 09:57:26;;;;;;;2.03;0.30;;;19.00;99.90;;;;;;4889981;29;20044;-76
2022/09/14 10:00:16;;;;;;;0.57;0.25;;;19.10;99.90;;;;;;4898511;29;20084;-76
2022/09/14 10:02:41;;;;;;;0.65;0.10;;;19.10;99.90;;;;;;4898482;29;20051;-76
2022/09/14 10:05:10;;;;;;;0.60;0.20;;;19.10;99.90;;;;;;4898646;29;20040;-77
2022/09/14 10:07:48;;;;;;;1.10;0.20;;;19.10;98.10;;;;;;4896774;29;20044;-76
2022/09/14 10:10:16;;;;;;;0.68;0.20;;;19.20;99.90;;;;;;4882854;29;20495;-77
2022/09/14 10:12:48;;;;;;;0.70;0.30;;;19.20;99.90;;;;;;4898564;29;20055;-76
2022/09/14 10:15:19;;;;;;;1.90;0.40;;;19.30;99.90;;;;;;4898129;29;20048;-75
2022/09/14 10:18:09;;;;;;;3.15;0.30;;;19.40;99.90;;;;;;4897760;29;20452;-76
2022/09/14 10:20:38;;;;;;;0.25;0.10;;;19.70;94.30;;;;;;4898537;29;20464;-76
2022/09/14 10:23:23;;;;;;;0.55;0.13;;;19.80;93.00;;;;;;4882789;29;20080;-76
2022/09/14 10:25:52;;;;;;;1.73;0.30;;;19.80;92.40;;;;;;4896907;29;20044;-76
2022/09/14 10:28:30;;;;;;;1.13;0.17;;;20.00;93.60;;;;;;4882627;29;20040;-77
2022/09/14 10:31:06;;;;;;;0.40;0.20;;;20.30;97.70;;;;;;4894470;29;20048;-76
2022/09/14 10:33:31;;;;;;;0.17;0.10;;;20.90;97.80;;;;;;4889634;29;20043;-77
2022/09/14 10:36:07;;;;;;;0.32;0.20;;;21.40;93.70;;;;;;4912337;29;20453;-78
2022/09/14 10:38:52;;;;;;;0.47;0.20;;;21.80;88.70;;;;;;4898578;29;20529;-76
2022/09/14 10:41:38;;;;;;;0.63;0.20;;;22.10;73.70;;;;;;4900471;29;20068;-76
2022/09/14 10:44:22;;;;;;;1.40;0.43;;;22.30;83.00;;;;;;4915587;29;20119;-77
2022/09/14 10:47:08;;;;;;;0.47;0.25;;;22.20;85.80;;;;;;4897941;29;20040;-77
2022/09/14 10:49:49;;;;;;;1.40;0.40;;;22.20;87.20;;;;;;4889709;29;20410;-77
2022/09/14 10:52:49;;;;;;;0.93;0.20;;;22.30;90.10;;;;;;4898287;29;20519;-77
2022/09/14 10:55:42;;;;;;;0.40;0.20;;;22.00;71.80;;;;;;4900457;29;20047;-77
2022/09/14 10:58:32;;;;;;;0.55;0.10;;;21.60;74.80;;;;;;4896771;29;20454;-77
2022/09/14 11:01:17;;;;;;;0.88;0.10;;;21.60;79.50;;;;;;4907934;29;20048;-77
2022/09/14 11:04:04;;;;;;;0.45;0.10;;;21.70;80.20;;;;;;4911199;29;20040;-77
2022/09/14 11:06:41;;;;;;;0.70;0.30;;;21.70;79.40;;;;;;4922678;29;20122;-78
2022/09/14 11:09:42;;;;;;;1.35;0.20;;;21.70;84.80;;;;;;4915403;29;20407;-76
2022/09/14 11:12:25;;;;;;;1.52;0.30;;;22.00;84.10;;;;;;4894608;29;20048;-76
2022/09/14 11:14:50;;;;;;;0.20;0.20;;;22.20;86.00;;;;;;4903332;29;20087;-76
2022/09/14 11:17:51;;;;;;;1.05;0.30;;;22.30;76.90;;;;;;4907898;29;20048;-76
2022/09/14 11:20:51;;;;;;;1.73;0.30;;;22.30;83.80;;;;;;4906849;29;20039;-76
2022/09/14 11:23:53;;;;;;;0.80;0.40;;;22.60;84.00;;;;;;4905314;29;20052;-76
2022/09/14 11:26:24;;;;;;;0.70;0.20;;;22.90;84.30;;;;;;4906274;29;20126;-76
2022/09/14 11:29:09;;;;;;;0.30;0.10;;;23.00;81.40;;;;;;4931080;29;20414;-76
2022/09/14 11:31:45;;;;;;;0.43;0.30;;;22.90;78.70;;;;;;4911799;29;20055;-76
2022/09/14 11:34:26;;;;;;;2.63;0.20;;;22.70;77.80;;;;;;4907677;29;20075;-76
2022/09/14 11:36:57;;;;;;;0.38;0.20;;;22.40;81.60;;;;;;4919340;29;20452;-76
2022/09/14 11:39:39;;;;;;;0.32;0.15;;;22.30;79.70;;;;;;4902239;29;20091;-76
2022/09/14 11:42:41;;;;;;;0.73;0.20;;;22.10;77.60;;;;;;4901799;29;20060;-76
2022/09/14 11:45:18;;;;;;;0.70;0.55;;;21.80;77.70;;;;;;4899877;29;20093;-76
2022/09/14 11:48:01;;;;;;;0.40;0.30;;;21.40;74.40;;;;;;4913753;29;20459;-77
2022/09/14 11:50:30;;;;;;;1.60;0.25;;;21.20;78.70;;;;;;4924016;29;20317;-77
2022/09/14 11:53:07;;;;;;;0.30;0.20;;;21.10;81.80;;;;;;4907984;29;20044;-77
2022/09/14 11:55:34;;;;;;;0.35;0.20;;;21.00;81.00;;;;;;4906563;29;20040;-76
2022/09/14 11:58:03;;;;;;;0.88;0.20;;;20.90;81.20;;;;;;4912688;29;20414;-76
2022/09/14 12:00:57;;;;;;;0.80;0.20;;;20.80;81.40;;;;;;4908249;29;20038;-76
2022/09/14 12:03:42;;;;;;;;;;;20.90;81.80;;;;;;4928054;29;20059;-76
2022/09/14 12:06:29;;;;;;;1.27;0.30;;;20.90;83.10;;;;;;4896712;29;19934;-77
2022/09/14 12:09:18;;;;;;;0.60;0.30;;;20.70;83.40;;;;;;4905097;29;20074;-76
2022/09/14 12:11:44;;;;;;;0.85;0.30;;;20.50;76.90;;;;;;4900051;29;20048;-77
2022/09/14 12:14:26;;;;;;;1.30;0.30;;;20.30;76.30;;;;;;4900578;29;20206;-77
2022/09/14 12:17:13;;;;;;;2.50;0.40;;;20.10;80.90;;;;;;4900297;29;20048;-77
2022/09/14 12:19:40;;;;;;;0.43;0.10;;;20.10;85.60;;;;;;4913018;29;20103;-77
2022/09/14 12:22:33;;;;;;;0.25;0.10;;;20.00;86.40;;;;;;4899898;29;20040;-77
2022/09/14 12:25:04;;;;;;;0.40;0.30;;;19.90;86.10;;;;;;4900248;29;20044;-76
2022/09/14 12:27:34;;;;;;;0.65;0.20;;;19.80;87.60;;;;;;4898943;29;20040;-77
2022/09/14 12:29:59;;;;;;;0.50;0.28;;;19.80;90.00;;;;;;4899986;29;20040;-77
2022/09/14 12:32:41;;;;;;;0.75;0.20;;;20.00;88.50;;;;;;4915605;29;20055;-76
2022/09/14 12:35:34;;;;;;;0.20;0.20;;;20.60;88.00;;;;;;4899980;29;20051;-77
2022/09/14 12:38:29;;;;;;;0.52;0.25;;;21.20;85.50;;;;;;4898690;29;20166;-77
2022/09/14 12:41:21;;;;;;;0.65;0.35;;;21.60;83.90;;;;;;4892803;29;20048;-79
2022/09/14 12:43:50;;;;;;;1.20;0.40;;;21.90;83.70;;;;;;4895900;29;20044;-77
2022/09/14 12:46:18;;;;;;;1.45;0.30;;;22.30;81.00;;;;;;4899831;29;20487;-77
2022/09/14 12:48:47;;;;;;;0.65;0.20;;;22.40;82.00;;;;;;4898532;29;20063;-77
2022/09/14 12:51:29;;;;;;;1.27;0.38;;;22.60;80.00;;;;;;4898003;29;20100;-77
2022/09/14 12:53:58;;;;;;;1.50;0.50;;;22.70;78.80;;;;;;4907568;29;20122;-77
2022/09/14 12:56:40;;;;;;;0.47;0.30;;;22.80;77.30;;;;;;4899498;29;20054;-76
2022/09/14 12:59:20;;;;;;;1.45;0.30;;;22.90;78.60;;;;;;4898745;29;20048;-76
2022/09/14 13:01:47;;;;;;;0.40;0.30;;;23.10;79.80;;;;;;4894811;29;20376;-77
2022/09/14 13:04:18;;;;;;;0.30;0.20;;;23.10;78.30;;;;;;4898900;29;20208;-77
2022/09/14 13:06:46;;;;;;;0.77;0.35;;;23.00;70.90;;;;;;4899391;29;20032;-76
2022/09/14 13:09:22;;;;;;;0.70;0.30;;;22.90;75.10;;;;;;4899321;29;20040;-76
2022/09/14 13:11:57;;;;;;;2.10;0.68;;;22.70;75.00;;;;;;4897972;29;20047;-78
2022/09/14 13:14:26;;;;;;;1.83;0.47;;;22.40;72.30;;;;;;4898653;29;20044;-77